sensor_id;sensor_type;location;lat;lon;timestamp;pressure;altitude;pressure_sealevel;temperature;humidity
71165;BME280;58859;55.132;-1.586;2023-06-04T00:01:07;102338.78;;;19.08;100.00
71165;BME280;58859;55.132;-1.586;2023-06-04T00:03:34;102344.88;;;19.09;100.00
71165;BME280;58859;55.132;-1.586;2023-06-04T00:05:59;102345.88;;;19.08;100.00
71165;BME280;58859;55.132;-1.586;2023-06-04T00:08:25;102340.78;;;19.06;100.00
71165;BME280;58859;55.132;-1.586;2023-06-04T00:10:51;102335.63;;;19.05;100.00
71165;BME280;58859;55.132;-1.586;2023-06-04T00:13:16;102340.97;;;18.29;100.00
71165;BME280;58859;55.132;-1.586;2023-06-04T00:15:42;102333.31;;;18.44;100.00
71165;BME280;58859;55.132;-1.586;2023-06-04T00:18:07;102334.97;;;18.45;100.00
71165;BME280;58859;55.132;-1.586;2023-06-04T00:20:33;102335.28;;;18.83;100.00
71165;BME280;58859;55.132;-1.586;2023-06-04T00:22:58;102325.03;;;18.64;100.00
71165;BME280;58859;55.132;-1.586;2023-06-04T00:25:23;102334.84;;;18.54;100.00
71165;BME280;58859;55.132;-1.586;2023-06-04T00:27:49;102333.53;;;18.50;100.00
71165;BME280;58859;55.132;-1.586;2023-06-04T00:30:15;102330.25;;;18.56;100.00
71165;BME280;58859;55.132;-1.586;2023-06-04T00:32:40;102336.56;;;18.71;100.00
71165;BME280;58859;55.132;-1.586;2023-06-04T00:35:06;102334.34;;;18.51;100.00
71165;BME280;58859;55.132;-1.586;2023-06-04T00:37:31;102338.63;;;18.52;100.00
71165;BME280;58859;55.132;-1.586;2023-06-04T00:39:58;102339.53;;;18.76;100.00
71165;BME280;58859;55.132;-1.586;2023-06-04T00:42:23;102342.16;;;18.76;100.00
71165;BME280;58859;55.132;-1.586;2023-06-04T00:44:49;102333.94;;;18.71;100.00
71165;BME280;58859;55.132;-1.586;2023-06-04T00:47:16;102339.38;;;18.70;100.00
71165;BME280;58859;55.132;-1.586;2023-06-04T00:49:42;102334.59;;;18.73;100.00
71165;BME280;58859;55.132;-1.586;2023-06-04T00:52:08;102331.22;;;17.52;100.00
71165;BME280;58859;55.132;-1.586;2023-06-04T00:54:35;102331.34;;;17.25;100.00
71165;BME280;58859;55.132;-1.586;2023-06-04T00:57:01;102323.19;;;18.31;100.00
71165;BME280;58859;55.132;-1.586;2023-06-04T00:59:31;102330.41;;;18.55;100.00
71165;BME280;58859;55.132;-1.586;2023-06-04T01:02:01;102332.47;;;18.43;100.00
71165;BME280;58859;55.132;-1.586;2023-06-04T01:07:09;102330.31;;;18.72;100.00
71165;BME280;58859;55.132;-1.586;2023-06-04T01:09:36;102327.81;;;18.63;100.00
71165;BME280;58859;55.132;-1.586;2023-06-04T01:12:06;102329.00;;;18.43;100.00
71165;BME280;58859;55.132;-1.586;2023-06-04T01:14:32;102329.06;;;18.51;100.00
71165;BME280;58859;55.132;-1.586;2023-06-04T01:17:23;102329.97;;;18.67;100.00
71165;BME280;58859;55.132;-1.586;2023-06-04T01:20:14;102327.78;;;17.34;100.00
71165;BME280;58859;55.132;-1.586;2023-06-04T01:27:54;102324.66;;;18.25;100.00
71165;BME280;58859;55.132;-1.586;2023-06-04T01:30:24;102323.16;;;18.23;100.00
71165;BME280;58859;55.132;-1.586;2023-06-04T01:32:51;102319.91;;;18.29;100.00
71165;BME280;58859;55.132;-1.586;2023-06-04T01:35:17;102322.69;;;18.61;100.00
71165;BME280;58859;55.132;-1.586;2023-06-04T01:37:42;102324.97;;;18.56;100.00
71165;BME280;58859;55.132;-1.586;2023-06-04T01:40:08;102319.41;;;18.33;100.00
71165;BME280;58859;55.132;-1.586;2023-06-04T01:42:34;102324.19;;;18.30;100.00
71165;BME280;58859;55.132;-1.586;2023-06-04T01:45:00;102326.13;;;18.28;100.00
71165;BME280;58859;55.132;-1.586;2023-06-04T01:47:25;102320.88;;;18.28;100.00
71165;BME280;58859;55.132;-1.586;2023-06-04T01:49:51;102333.28;;;17.58;100.00
71165;BME280;58859;55.132;-1.586;2023-06-04T01:52:16;102319.47;;;18.08;100.00
71165;BME280;58859;55.132;-1.586;2023-06-04T01:54:41;102330.81;;;18.42;100.00
71165;BME280;58859;55.132;-1.586;2023-06-04T01:57:08;102324.06;;;18.06;100.00
71165;BME280;58859;55.132;-1.586;2023-06-04T01:59:35;102329.94;;;18.00;100.00
71165;BME280;58859;55.132;-1.586;2023-06-04T02:02:02;102330.09;;;18.24;100.00
71165;BME280;58859;55.132;-1.586;2023-06-04T02:04:27;102335.22;;;18.00;100.00
71165;BME280;58859;55.132;-1.586;2023-06-04T02:06:53;102337.41;;;18.04;100.00
71165;BME280;58859;55.132;-1.586;2023-06-04T02:09:18;102334.63;;;17.88;100.00
71165;BME280;58859;55.132;-1.586;2023-06-04T02:11:44;102336.91;;;17.83;100.00
71165;BME280;58859;55.132;-1.586;2023-06-04T02:14:09;102339.97;;;17.70;100.00
71165;BME280;58859;55.132;-1.586;2023-06-04T02:16:35;102342.44;;;17.72;100.00
71165;BME280;58859;55.132;-1.586;2023-06-04T02:19:00;102334.91;;;17.77;100.00
71165;BME280;58859;55.132;-1.586;2023-06-04T02:21:26;102347.50;;;17.91;100.00
71165;BME280;58859;55.132;-1.586;2023-06-04T02:23:51;102342.75;;;17.95;100.00
71165;BME280;58859;55.132;-1.586;2023-06-04T02:26:16;102341.00;;;17.77;100.00
71165;BME280;58859;55.132;-1.586;2023-06-04T02:28:42;102340.47;;;17.03;100.00
71165;BME280;58859;55.132;-1.586;2023-06-04T02:31:08;102340.34;;;17.05;100.00
71165;BME280;58859;55.132;-1.586;2023-06-04T02:33:33;102336.56;;;17.43;100.00
71165;BME280;58859;55.132;-1.586;2023-06-04T02:35:58;102341.41;;;17.65;100.00
71165;BME280;58859;55.132;-1.586;2023-06-04T02:38:24;102335.16;;;16.95;100.00
71165;BME280;58859;55.132;-1.586;2023-06-04T02:40:49;102340.06;;;17.61;100.00
71165;BME280;58859;55.132;-1.586;2023-06-04T02:43:15;102338.41;;;17.42;100.00
71165;BME280;58859;55.132;-1.586;2023-06-04T02:45:40;102321.53;;;17.53;100.00
71165;BME280;58859;55.132;-1.586;2023-06-04T02:48:06;102325.38;;;17.76;100.00
71165;BME280;58859;55.132;-1.586;2023-06-04T02:50:32;102343.69;;;17.86;100.00
71165;BME280;58859;55.132;-1.586;2023-06-04T02:52:57;102340.94;;;17.95;100.00
71165;BME280;58859;55.132;-1.586;2023-06-04T02:55:22;102342.84;;;18.11;100.00
71165;BME280;58859;55.132;-1.586;2023-06-04T02:57:48;102337.84;;;17.03;100.00
71165;BME280;58859;55.132;-1.586;2023-06-04T03:00:16;102332.84;;;17.89;100.00
71165;BME280;58859;55.132;-1.586;2023-06-04T03:02:43;102338.91;;;17.63;100.00
71165;BME280;58859;55.132;-1.586;2023-06-04T03:05:10;102339.97;;;17.53;100.00
71165;BME280;58859;55.132;-1.586;2023-06-04T03:07:36;102335.94;;;16.78;100.00
71165;BME280;58859;55.132;-1.586;2023-06-04T03:10:02;102344.56;;;17.15;100.00
71165;BME280;58859;55.132;-1.586;2023-06-04T03:12:29;102338.16;;;17.18;100.00
71165;BME280;58859;55.132;-1.586;2023-06-04T03:14:55;102349.25;;;16.40;100.00
71165;BME280;58859;55.132;-1.586;2023-06-04T03:17:20;102342.13;;;17.40;100.00
71165;BME280;58859;55.132;-1.586;2023-06-04T03:19:46;102349.22;;;17.21;100.00
71165;BME280;58859;55.132;-1.586;2023-06-04T03:22:13;102344.25;;;16.56;100.00
71165;BME280;58859;55.132;-1.586;2023-06-04T03:24:39;102349.16;;;17.13;100.00
71165;BME280;58859;55.132;-1.586;2023-06-04T03:27:07;102353.56;;;16.95;100.00
71165;BME280;58859;55.132;-1.586;2023-06-04T03:29:33;102349.22;;;17.39;100.00
71165;BME280;58859;55.132;-1.586;2023-06-04T03:32:00;102353.94;;;17.00;100.00
71165;BME280;58859;55.132;-1.586;2023-06-04T03:34:25;102357.41;;;17.36;100.00
71165;BME280;58859;55.132;-1.586;2023-06-04T03:36:54;102365.38;;;16.18;100.00
71165;BME280;58859;55.132;-1.586;2023-06-04T03:39:20;102352.34;;;16.90;100.00
71165;BME280;58859;55.132;-1.586;2023-06-04T03:41:46;102349.03;;;16.60;100.00
71165;BME280;58859;55.132;-1.586;2023-06-04T03:44:16;102344.09;;;17.02;100.00
71165;BME280;58859;55.132;-1.586;2023-06-04T03:46:42;102345.81;;;17.47;100.00
71165;BME280;58859;55.132;-1.586;2023-06-04T03:49:12;102346.72;;;17.20;100.00
71165;BME280;58859;55.132;-1.586;2023-06-04T03:51:38;102347.03;;;16.72;100.00
71165;BME280;58859;55.132;-1.586;2023-06-04T03:54:03;102355.22;;;17.49;100.00
71165;BME280;58859;55.132;-1.586;2023-06-04T03:56:29;102350.78;;;17.50;100.00
71165;BME280;58859;55.132;-1.586;2023-06-04T03:58:54;102352.28;;;17.52;100.00
71165;BME280;58859;55.132;-1.586;2023-06-04T04:01:20;102362.28;;;15.76;100.00
71165;BME280;58859;55.132;-1.586;2023-06-04T04:03:46;102356.31;;;16.76;100.00
71165;BME280;58859;55.132;-1.586;2023-06-04T04:06:15;102355.53;;;15.64;100.00
71165;BME280;58859;55.132;-1.586;2023-06-04T04:08:41;102347.66;;;17.11;100.00
71165;BME280;58859;55.132;-1.586;2023-06-04T04:11:16;102346.53;;;16.86;100.00
71165;BME280;58859;55.132;-1.586;2023-06-04T04:13:41;102345.28;;;16.90;100.00
71165;BME280;58859;55.132;-1.586;2023-06-04T04:16:07;102355.13;;;17.06;100.00
71165;BME280;58859;55.132;-1.586;2023-06-04T04:18:36;102357.94;;;17.22;100.00
71165;BME280;58859;55.132;-1.586;2023-06-04T04:21:03;102355.28;;;17.40;100.00
71165;BME280;58859;55.132;-1.586;2023-06-04T04:23:29;102352.56;;;16.79;100.00
71165;BME280;58859;55.132;-1.586;2023-06-04T04:25:55;102349.75;;;17.25;100.00
71165;BME280;58859;55.132;-1.586;2023-06-04T04:28:26;102356.56;;;17.53;100.00
71165;BME280;58859;55.132;-1.586;2023-06-04T04:30:56;102355.09;;;17.33;100.00
71165;BME280;58859;55.132;-1.586;2023-06-04T04:33:22;102344.25;;;17.18;100.00
71165;BME280;58859;55.132;-1.586;2023-06-04T04:35:50;102356.41;;;17.02;100.00
71165;BME280;58859;55.132;-1.586;2023-06-04T04:38:15;102350.41;;;17.27;100.00
71165;BME280;58859;55.132;-1.586;2023-06-04T04:40:42;102349.28;;;17.30;100.00
71165;BME280;58859;55.132;-1.586;2023-06-04T04:43:07;102354.97;;;16.90;100.00
71165;BME280;58859;55.132;-1.586;2023-06-04T04:45:33;102358.84;;;16.22;100.00
71165;BME280;58859;55.132;-1.586;2023-06-04T04:47:58;102353.56;;;16.95;100.00
71165;BME280;58859;55.132;-1.586;2023-06-04T04:50:23;102355.38;;;16.67;100.00
71165;BME280;58859;55.132;-1.586;2023-06-04T04:52:49;102363.16;;;16.23;100.00
71165;BME280;58859;55.132;-1.586;2023-06-04T04:55:14;102356.56;;;17.00;100.00
71165;BME280;58859;55.132;-1.586;2023-06-04T04:57:40;102356.88;;;17.15;100.00
71165;BME280;58859;55.132;-1.586;2023-06-04T05:00:06;102355.91;;;17.34;100.00
71165;BME280;58859;55.132;-1.586;2023-06-04T05:02:37;102344.66;;;17.59;100.00
71165;BME280;58859;55.132;-1.586;2023-06-04T05:05:03;102360.25;;;17.43;100.00
71165;BME280;58859;55.132;-1.586;2023-06-04T05:07:28;102355.63;;;17.54;100.00
71165;BME280;58859;55.132;-1.586;2023-06-04T05:09:54;102346.13;;;17.79;100.00
71165;BME280;58859;55.132;-1.586;2023-06-04T05:12:19;102357.63;;;17.43;100.00
71165;BME280;58859;55.132;-1.586;2023-06-04T05:14:45;102355.06;;;17.68;100.00
71165;BME280;58859;55.132;-1.586;2023-06-04T05:17:11;102344.09;;;17.38;100.00
71165;BME280;58859;55.132;-1.586;2023-06-04T05:19:38;102359.72;;;17.74;100.00
71165;BME280;58859;55.132;-1.586;2023-06-04T05:22:04;102359.81;;;16.67;100.00
71165;BME280;58859;55.132;-1.586;2023-06-04T05:24:30;102364.00;;;17.40;100.00
71165;BME280;58859;55.132;-1.586;2023-06-04T05:26:56;102358.34;;;16.82;100.00
71165;BME280;58859;55.132;-1.586;2023-06-04T05:29:23;102371.19;;;16.12;100.00
71165;BME280;58859;55.132;-1.586;2023-06-04T05:31:48;102362.66;;;17.18;100.00
71165;BME280;58859;55.132;-1.586;2023-06-04T05:34:14;102372.34;;;16.36;100.00
71165;BME280;58859;55.132;-1.586;2023-06-04T05:36:42;102366.19;;;16.64;100.00
71165;BME280;58859;55.132;-1.586;2023-06-04T05:39:07;102366.50;;;17.24;100.00
71165;BME280;58859;55.132;-1.586;2023-06-04T05:41:34;102364.69;;;17.07;100.00
71165;BME280;58859;55.132;-1.586;2023-06-04T05:44:01;102358.81;;;17.84;100.00
71165;BME280;58859;55.132;-1.586;2023-06-04T05:46:26;102362.44;;;17.47;100.00
71165;BME280;58859;55.132;-1.586;2023-06-04T05:48:51;102370.03;;;17.50;100.00
71165;BME280;58859;55.132;-1.586;2023-06-04T05:51:17;102361.56;;;17.56;100.00
71165;BME280;58859;55.132;-1.586;2023-06-04T05:53:42;102360.19;;;16.35;100.00
71165;BME280;58859;55.132;-1.586;2023-06-04T05:56:07;102362.97;;;16.34;100.00
71165;BME280;58859;55.132;-1.586;2023-06-04T05:58:33;102359.88;;;17.02;100.00
71165;BME280;58859;55.132;-1.586;2023-06-04T06:00:59;102364.56;;;16.44;100.00
71165;BME280;58859;55.132;-1.586;2023-06-04T06:03:25;102370.34;;;17.65;100.00
71165;BME280;58859;55.132;-1.586;2023-06-04T06:05:52;102368.06;;;17.52;100.00
71165;BME280;58859;55.132;-1.586;2023-06-04T06:08:19;102364.34;;;17.98;100.00
71165;BME280;58859;55.132;-1.586;2023-06-04T06:10:45;102347.13;;;17.60;100.00
71165;BME280;58859;55.132;-1.586;2023-06-04T06:13:10;102374.81;;;16.38;100.00
71165;BME280;58859;55.132;-1.586;2023-06-04T06:15:36;102369.63;;;16.65;100.00
71165;BME280;58859;55.132;-1.586;2023-06-04T06:18:01;102376.97;;;16.52;100.00
71165;BME280;58859;55.132;-1.586;2023-06-04T06:20:27;102372.81;;;17.84;100.00
71165;BME280;58859;55.132;-1.586;2023-06-04T06:22:54;102372.19;;;17.37;100.00
71165;BME280;58859;55.132;-1.586;2023-06-04T06:25:19;102383.94;;;17.78;100.00
71165;BME280;58859;55.132;-1.586;2023-06-04T06:27:45;102380.59;;;17.68;100.00
71165;BME280;58859;55.132;-1.586;2023-06-04T06:30:10;102376.78;;;17.00;100.00
71165;BME280;58859;55.132;-1.586;2023-06-04T06:32:37;102371.97;;;17.48;100.00
71165;BME280;58859;55.132;-1.586;2023-06-04T06:35:02;102368.84;;;17.45;100.00
71165;BME280;58859;55.132;-1.586;2023-06-04T06:37:28;102370.56;;;17.18;100.00
71165;BME280;58859;55.132;-1.586;2023-06-04T06:39:54;102374.44;;;17.85;100.00
71165;BME280;58859;55.132;-1.586;2023-06-04T06:42:19;102375.75;;;17.63;100.00
71165;BME280;58859;55.132;-1.586;2023-06-04T06:44:45;102372.50;;;18.13;100.00
71165;BME280;58859;55.132;-1.586;2023-06-04T06:47:10;102374.22;;;17.96;100.00
71165;BME280;58859;55.132;-1.586;2023-06-04T06:49:39;102377.22;;;16.68;100.00
71165;BME280;58859;55.132;-1.586;2023-06-04T06:52:05;102383.81;;;17.62;100.00
71165;BME280;58859;55.132;-1.586;2023-06-04T06:54:30;102374.13;;;17.88;100.00
71165;BME280;58859;55.132;-1.586;2023-06-04T06:56:55;102374.97;;;17.71;100.00
71165;BME280;58859;55.132;-1.586;2023-06-04T06:59:21;102382.81;;;18.06;100.00
71165;BME280;58859;55.132;-1.586;2023-06-04T07:01:46;102375.78;;;18.15;100.00
71165;BME280;58859;55.132;-1.586;2023-06-04T07:04:12;102376.56;;;17.46;100.00
71165;BME280;58859;55.132;-1.586;2023-06-04T07:06:38;102381.75;;;16.39;100.00
71165;BME280;58859;55.132;-1.586;2023-06-04T07:09:03;102380.00;;;17.56;100.00
71165;BME280;58859;55.132;-1.586;2023-06-04T07:11:31;102381.41;;;16.15;100.00
71165;BME280;58859;55.132;-1.586;2023-06-04T07:13:56;102387.94;;;15.91;100.00
71165;BME280;58859;55.132;-1.586;2023-06-04T07:16:21;102379.72;;;17.32;100.00
71165;BME280;58859;55.132;-1.586;2023-06-04T07:18:47;102385.63;;;16.99;100.00
71165;BME280;58859;55.132;-1.586;2023-06-04T07:21:14;102385.66;;;17.34;100.00
71165;BME280;58859;55.132;-1.586;2023-06-04T07:23:39;102382.72;;;17.02;100.00
71165;BME280;58859;55.132;-1.586;2023-06-04T07:26:05;102386.66;;;17.51;100.00
71165;BME280;58859;55.132;-1.586;2023-06-04T07:28:32;102385.78;;;18.37;100.00
71165;BME280;58859;55.132;-1.586;2023-06-04T07:30:57;102382.78;;;19.00;100.00
71165;BME280;58859;55.132;-1.586;2023-06-04T07:33:24;102384.00;;;19.21;100.00
71165;BME280;58859;55.132;-1.586;2023-06-04T07:35:49;102391.81;;;17.96;100.00
71165;BME280;58859;55.132;-1.586;2023-06-04T07:38:15;102385.28;;;18.33;100.00
71165;BME280;58859;55.132;-1.586;2023-06-04T07:40:41;102380.84;;;17.83;100.00
71165;BME280;58859;55.132;-1.586;2023-06-04T07:43:06;102395.78;;;17.56;100.00
71165;BME280;58859;55.132;-1.586;2023-06-04T07:45:32;102389.66;;;18.25;100.00
71165;BME280;58859;55.132;-1.586;2023-06-04T07:47:57;102391.84;;;18.29;100.00
71165;BME280;58859;55.132;-1.586;2023-06-04T07:50:23;102390.09;;;18.64;100.00
71165;BME280;58859;55.132;-1.586;2023-06-04T07:52:48;102398.47;;;18.08;100.00
71165;BME280;58859;55.132;-1.586;2023-06-04T07:55:14;102399.59;;;18.31;100.00
71165;BME280;58859;55.132;-1.586;2023-06-04T07:57:39;102400.22;;;18.25;100.00
71165;BME280;58859;55.132;-1.586;2023-06-04T08:00:06;102399.81;;;18.12;100.00
71165;BME280;58859;55.132;-1.586;2023-06-04T08:02:32;102403.03;;;17.27;100.00
71165;BME280;58859;55.132;-1.586;2023-06-04T08:04:58;102405.44;;;17.38;100.00
71165;BME280;58859;55.132;-1.586;2023-06-04T08:07:23;102401.50;;;16.80;100.00
71165;BME280;58859;55.132;-1.586;2023-06-04T08:09:48;102386.81;;;18.70;100.00
71165;BME280;58859;55.132;-1.586;2023-06-04T08:12:15;102383.13;;;18.29;100.00
71165;BME280;58859;55.132;-1.586;2023-06-04T08:14:41;102396.56;;;17.74;100.00
71165;BME280;58859;55.132;-1.586;2023-06-04T08:17:06;102396.47;;;18.27;100.00
71165;BME280;58859;55.132;-1.586;2023-06-04T08:19:32;102394.09;;;18.76;100.00
71165;BME280;58859;55.132;-1.586;2023-06-04T08:21:57;102386.72;;;17.41;100.00
71165;BME280;58859;55.132;-1.586;2023-06-04T08:24:23;102399.03;;;17.23;100.00
71165;BME280;58859;55.132;-1.586;2023-06-04T08:26:48;102394.44;;;17.43;100.00
71165;BME280;58859;55.132;-1.586;2023-06-04T08:29:15;102391.34;;;18.52;100.00
71165;BME280;58859;55.132;-1.586;2023-06-04T08:31:40;102397.47;;;18.09;100.00
71165;BME280;58859;55.132;-1.586;2023-06-04T08:34:06;102390.63;;;18.16;100.00
71165;BME280;58859;55.132;-1.586;2023-06-04T08:36:31;102395.78;;;17.56;100.00
71165;BME280;58859;55.132;-1.586;2023-06-04T08:39:00;102379.63;;;17.77;100.00
71165;BME280;58859;55.132;-1.586;2023-06-04T08:41:48;102394.50;;;18.55;100.00
71165;BME280;58859;55.132;-1.586;2023-06-04T08:44:16;102402.97;;;17.54;100.00
71165;BME280;58859;55.132;-1.586;2023-06-04T08:46:43;102404.72;;;18.07;100.00
71165;BME280;58859;55.132;-1.586;2023-06-04T08:49:12;102404.16;;;17.77;100.00
71165;BME280;58859;55.132;-1.586;2023-06-04T08:51:37;102402.78;;;17.38;100.00
71165;BME280;58859;55.132;-1.586;2023-06-04T08:54:07;102396.63;;;18.34;100.00
71165;BME280;58859;55.132;-1.586;2023-06-04T08:56:33;102394.75;;;17.93;100.00
71165;BME280;58859;55.132;-1.586;2023-06-04T08:59:01;102390.53;;;17.29;100.00
71165;BME280;58859;55.132;-1.586;2023-06-04T09:01:27;102384.13;;;18.62;100.00
71165;BME280;58859;55.132;-1.586;2023-06-04T09:03:53;102379.53;;;18.64;100.00
71165;BME280;58859;55.132;-1.586;2023-06-04T09:06:19;102388.34;;;17.95;100.00
71165;BME280;58859;55.132;-1.586;2023-06-04T09:08:45;102389.66;;;18.25;100.00
71165;BME280;58859;55.132;-1.586;2023-06-04T09:11:13;102379.81;;;18.53;100.00
71165;BME280;58859;55.132;-1.586;2023-06-04T09:13:39;102385.63;;;18.30;100.00
71165;BME280;58859;55.132;-1.586;2023-06-04T09:16:05;102385.78;;;18.63;100.00
71165;BME280;58859;55.132;-1.586;2023-06-04T09:18:31;102378.69;;;18.04;100.00
71165;BME280;58859;55.132;-1.586;2023-06-04T09:21:08;102382.88;;;18.14;100.00
71165;BME280;58859;55.132;-1.586;2023-06-04T09:23:43;102384.59;;;18.49;100.00
71165;BME280;58859;55.132;-1.586;2023-06-04T09:26:10;102375.00;;;18.22;100.00
71165;BME280;58859;55.132;-1.586;2023-06-04T09:28:39;102388.75;;;18.34;100.00
71165;BME280;58859;55.132;-1.586;2023-06-04T09:31:08;102382.75;;;18.91;100.00
71165;BME280;58859;55.132;-1.586;2023-06-04T09:33:50;102382.66;;;17.82;100.00
71165;BME280;58859;55.132;-1.586;2023-06-04T09:36:16;102377.91;;;18.11;100.00
71165;BME280;58859;55.132;-1.586;2023-06-04T09:38:42;102383.38;;;18.44;100.00
71165;BME280;58859;55.132;-1.586;2023-06-04T09:41:16;102384.47;;;19.17;100.00
71165;BME280;58859;55.132;-1.586;2023-06-04T09:43:41;102380.97;;;18.92;100.00
71165;BME280;58859;55.132;-1.586;2023-06-04T09:46:13;102387.00;;;18.84;100.00
71165;BME280;58859;55.132;-1.586;2023-06-04T09:48:40;102387.13;;;18.07;100.00
71165;BME280;58859;55.132;-1.586;2023-06-04T09:51:10;102379.19;;;17.82;100.00
71165;BME280;58859;55.132;-1.586;2023-06-04T09:53:36;102389.22;;;18.55;100.00
71165;BME280;58859;55.132;-1.586;2023-06-04T09:56:03;102390.19;;;18.28;100.00
71165;BME280;58859;55.132;-1.586;2023-06-04T09:58:29;102394.56;;;18.79;100.00
71165;BME280;58859;55.132;-1.586;2023-06-04T10:01:00;102386.59;;;18.04;100.00
71165;BME280;58859;55.132;-1.586;2023-06-04T10:03:36;102390.72;;;19.08;100.00
71165;BME280;58859;55.132;-1.586;2023-06-04T10:06:05;102407.19;;;18.34;100.00
71165;BME280;58859;55.132;-1.586;2023-06-04T10:08:32;102386.91;;;18.01;100.00
71165;BME280;58859;55.132;-1.586;2023-06-04T10:11:02;102397.47;;;18.09;100.00
71165;BME280;58859;55.132;-1.586;2023-06-04T10:13:37;102397.13;;;18.97;100.00
71165;BME280;58859;55.132;-1.586;2023-06-04T10:16:05;102401.41;;;18.56;100.00
71165;BME280;58859;55.132;-1.586;2023-06-04T10:18:32;102397.22;;;18.79;100.00
71165;BME280;58859;55.132;-1.586;2023-06-04T10:20:58;102404.06;;;19.06;100.00
71165;BME280;58859;55.132;-1.586;2023-06-04T10:23:24;102399.13;;;19.11;100.00
71165;BME280;58859;55.132;-1.586;2023-06-04T10:25:51;102400.91;;;18.94;100.00
71165;BME280;58859;55.132;-1.586;2023-06-04T10:28:21;102401.25;;;19.00;100.00
71165;BME280;58859;55.132;-1.586;2023-06-04T10:30:47;102397.72;;;19.97;100.00
71165;BME280;58859;55.132;-1.586;2023-06-04T10:33:19;102399.88;;;19.70;100.00
71165;BME280;58859;55.132;-1.586;2023-06-04T10:35:52;102398.41;;;19.67;100.00
71165;BME280;58859;55.132;-1.586;2023-06-04T10:38:18;102408.59;;;19.38;100.00
71165;BME280;58859;55.132;-1.586;2023-06-04T10:40:45;102406.66;;;19.56;100.00
71165;BME280;58859;55.132;-1.586;2023-06-04T10:43:12;102405.84;;;19.80;100.00
71165;BME280;58859;55.132;-1.586;2023-06-04T10:45:39;102404.59;;;19.10;100.00
71165;BME280;58859;55.132;-1.586;2023-06-04T10:48:07;102388.97;;;19.97;100.00
71165;BME280;58859;55.132;-1.586;2023-06-04T10:50:34;102403.97;;;20.04;100.00
71165;BME280;58859;55.132;-1.586;2023-06-04T10:53:00;102388.66;;;19.84;100.00
71165;BME280;58859;55.132;-1.586;2023-06-04T10:55:31;102406.47;;;20.06;100.00
71165;BME280;58859;55.132;-1.586;2023-06-04T10:57:58;102402.84;;;19.99;100.00
71165;BME280;58859;55.132;-1.586;2023-06-04T11:00:43;102412.09;;;19.71;100.00
71165;BME280;58859;55.132;-1.586;2023-06-04T11:03:11;102418.88;;;19.89;100.00
71165;BME280;58859;55.132;-1.586;2023-06-04T11:08:05;102422.97;;;19.84;100.00
71165;BME280;58859;55.132;-1.586;2023-06-04T11:10:40;102416.94;;;19.09;100.00
71165;BME280;58859;55.132;-1.586;2023-06-04T11:13:07;102413.41;;;19.42;100.00
71165;BME280;58859;55.132;-1.586;2023-06-04T11:15:45;102419.69;;;19.49;100.00
71165;BME280;58859;55.132;-1.586;2023-06-04T11:18:16;102419.50;;;19.75;100.00
71165;BME280;58859;55.132;-1.586;2023-06-04T11:20:43;102408.56;;;19.30;100.00
71165;BME280;58859;55.132;-1.586;2023-06-04T11:23:08;102415.66;;;19.21;100.00
71165;BME280;58859;55.132;-1.586;2023-06-04T11:25:36;102410.47;;;18.96;100.00
71165;BME280;58859;55.132;-1.586;2023-06-04T11:28:02;102409.44;;;19.87;100.00
71165;BME280;58859;55.132;-1.586;2023-06-04T11:30:27;102411.38;;;19.36;100.00
71165;BME280;58859;55.132;-1.586;2023-06-04T11:33:01;102414.41;;;20.06;100.00
71165;BME280;58859;55.132;-1.586;2023-06-04T11:35:27;102408.53;;;20.90;100.00
71165;BME280;58859;55.132;-1.586;2023-06-04T11:37:53;102414.72;;;20.11;100.00
71165;BME280;58859;55.132;-1.586;2023-06-04T11:40:20;102405.16;;;20.26;100.00
71165;BME280;58859;55.132;-1.586;2023-06-04T11:42:49;102409.94;;;20.70;100.00
71165;BME280;58859;55.132;-1.586;2023-06-04T11:45:18;102424.56;;;20.57;100.00
71165;BME280;58859;55.132;-1.586;2023-06-04T11:47:46;102413.88;;;20.11;100.00
71165;BME280;58859;55.132;-1.586;2023-06-04T11:50:12;102422.63;;;20.11;100.00
71165;BME280;58859;55.132;-1.586;2023-06-04T11:52:38;102413.06;;;19.62;100.00
71165;BME280;58859;55.132;-1.586;2023-06-04T11:55:07;102418.81;;;20.38;100.00
71165;BME280;58859;55.132;-1.586;2023-06-04T11:57:33;102414.84;;;20.89;100.00
71165;BME280;58859;55.132;-1.586;2023-06-04T11:59:59;102417.66;;;20.24;100.00
71165;BME280;58859;55.132;-1.586;2023-06-04T12:02:25;102413.44;;;19.67;100.00
71165;BME280;58859;55.132;-1.586;2023-06-04T12:04:50;102407.75;;;20.81;100.00
71165;BME280;58859;55.132;-1.586;2023-06-04T12:07:20;102400.66;;;21.58;100.00
71165;BME280;58859;55.132;-1.586;2023-06-04T12:09:50;102406.13;;;20.80;100.00
71165;BME280;58859;55.132;-1.586;2023-06-04T12:12:21;102412.25;;;21.11;100.00
71165;BME280;58859;55.132;-1.586;2023-06-04T12:14:47;102411.75;;;21.39;100.00
71165;BME280;58859;55.132;-1.586;2023-06-04T12:17:12;102409.44;;;22.18;100.00
71165;BME280;58859;55.132;-1.586;2023-06-04T12:19:48;102415.13;;;20.94;100.00
71165;BME280;58859;55.132;-1.586;2023-06-04T12:22:13;102418.19;;;22.04;100.00
71165;BME280;58859;55.132;-1.586;2023-06-04T12:24:59;102416.03;;;20.78;100.00
71165;BME280;58859;55.132;-1.586;2023-06-04T12:27:28;102408.81;;;19.61;100.00
71165;BME280;58859;55.132;-1.586;2023-06-04T12:30:04;102421.06;;;20.96;100.00
71165;BME280;58859;55.132;-1.586;2023-06-04T12:32:35;102428.22;;;20.32;100.00
71165;BME280;58859;55.132;-1.586;2023-06-04T12:35:01;102427.09;;;19.46;100.00
71165;BME280;58859;55.132;-1.586;2023-06-04T12:37:27;102424.63;;;20.09;100.00
71165;BME280;58859;55.132;-1.586;2023-06-04T12:39:55;102434.38;;;20.00;100.00